Terminal Aerodrome Forecast
Issued by NWS

Home | Current Version | Previous Version | Text Only | Print | Product List | Glossary Off
Versions: 1 2 3 4 5 6 7 8 9 10 11 12 13 14

221
FTUS43 KDLH 241135
TAFHYR
TAF
KHYR 241135Z 2412/2512 20008KT P6SM BKN200 WS020/25033KT
     FM241600 21008KT P6SM -DZ BKN080
     FM241900 24007KT P6SM -RA BKN018
     FM250100 29008KT P6SM BKN035=

USA.gov is the U.S. government's official web portal to all federal, state and local government web resources and services.